Etihad Airways Virtual Airport Information Service

New York John F. Kennedy International Airport

ICAO: KJFK Country: United States
Latitude: 40.6398 Longitude: -73.7789
Latest Arrival : QTR8002 (1B) (LIMC-KJFK) Latest Departure : ETD100 (KJFK-OMAA)


WX CaptureLIVE
Data provided by noaa.gov | Recorded at 00:59:34

METAR : KJFK 012351Z 00000KT 10SM SCT120 BKN160 OVC250 07/M03 A3016 RMK AO2 SLP214 T00671028 10100 20056 51008

TAF : KJFK 012322Z 0200/0306 24007KT P6SM SCT040 BKN130 FM020400 VRB05KT P6SM VCSH OVC040 FM021100 19009KT P6SM OVC040 FM021400 21012G19KT P6SM BKN040 FM022000 24015G23KT P6SM BKN050 FM030200 28015G23KT P6SM BKN050


Runway Data for KJFK
Data provided by openaviationdata.com

Runway ID Mag Var Hdg Length Elevation Surface ILS Freq ILS Id ILS Slope

New York John F. Kennedy International Airport, United States
Use only for reference purposes